sensor_id;sensor_type;location;lat;lon;timestamp;P1;durP1;ratioP1;P2;durP2;ratioP2
65461;SDS011;53236;43.666;18.444;2022-07-03T00:00:21;17.20;;;11.77;;
65461;SDS011;53236;43.666;18.444;2022-07-03T00:02:47;14.17;;;11.20;;
65461;SDS011;53236;43.666;18.444;2022-07-03T00:05:13;17.30;;;11.50;;
65461;SDS011;53236;43.666;18.444;2022-07-03T00:07:38;15.90;;;12.20;;
65461;SDS011;53236;43.666;18.444;2022-07-03T00:10:04;15.70;;;10.97;;
65461;SDS011;53236;43.666;18.444;2022-07-03T00:12:30;14.40;;;10.50;;
65461;SDS011;53236;43.666;18.444;2022-07-03T00:14:56;17.53;;;10.63;;
65461;SDS011;53236;43.666;18.444;2022-07-03T00:17:22;16.80;;;9.93;;
65461;SDS011;53236;43.666;18.444;2022-07-03T00:19:48;13.73;;;10.33;;
65461;SDS011;53236;43.666;18.444;2022-07-03T00:22:13;17.70;;;10.70;;
65461;SDS011;53236;43.666;18.444;2022-07-03T00:27:17;16.90;;;10.57;;
65461;SDS011;53236;43.666;18.444;2022-07-03T00:29:46;16.90;;;11.60;;
65461;SDS011;53236;43.666;18.444;2022-07-03T00:32:15;14.43;;;10.97;;
65461;SDS011;53236;43.666;18.444;2022-07-03T00:34:53;16.20;;;11.55;;
65461;SDS011;53236;43.666;18.444;2022-07-03T00:37:20;14.63;;;10.43;;
65461;SDS011;53236;43.666;18.444;2022-07-03T00:39:47;15.33;;;11.10;;
65461;SDS011;53236;43.666;18.444;2022-07-03T00:42:16;15.33;;;10.30;;
65461;SDS011;53236;43.666;18.444;2022-07-03T00:44:49;16.50;;;10.30;;
65461;SDS011;53236;43.666;18.444;2022-07-03T00:47:18;14.30;;;10.57;;
65461;SDS011;53236;43.666;18.444;2022-07-03T00:49:48;17.47;;;11.67;;
65461;SDS011;53236;43.666;18.444;2022-07-03T00:52:19;13.53;;;10.97;;
65461;SDS011;53236;43.666;18.444;2022-07-03T00:54:52;16.47;;;11.33;;
65461;SDS011;53236;43.666;18.444;2022-07-03T00:57:20;14.23;;;10.87;;
65461;SDS011;53236;43.666;18.444;2022-07-03T00:59:47;15.13;;;9.57;;
65461;SDS011;53236;43.666;18.444;2022-07-03T01:02:15;15.87;;;9.57;;
65461;SDS011;53236;43.666;18.444;2022-07-03T01:10:42;14.60;;;10.10;;
65461;SDS011;53236;43.666;18.444;2022-07-03T01:13:12;12.53;;;10.00;;
65461;SDS011;53236;43.666;18.444;2022-07-03T01:18:26;12.97;;;10.70;;
65461;SDS011;53236;43.666;18.444;2022-07-03T01:20:56;14.63;;;10.57;;
65461;SDS011;53236;43.666;18.444;2022-07-03T01:26:15;19.73;;;10.17;;
65461;SDS011;53236;43.666;18.444;2022-07-03T01:28:42;15.33;;;10.47;;
65461;SDS011;53236;43.666;18.444;2022-07-03T01:31:10;15.07;;;9.83;;
65461;SDS011;53236;43.666;18.444;2022-07-03T01:33:43;15.77;;;10.53;;
65461;SDS011;53236;43.666;18.444;2022-07-03T01:36:12;22.77;;;10.27;;
65461;SDS011;53236;43.666;18.444;2022-07-03T01:38:40;16.30;;;10.87;;
65461;SDS011;53236;43.666;18.444;2022-07-03T01:41:08;19.07;;;11.37;;
65461;SDS011;53236;43.666;18.444;2022-07-03T01:43:39;25.37;;;13.13;;
65461;SDS011;53236;43.666;18.444;2022-07-03T01:46:20;14.03;;;9.63;;
65461;SDS011;53236;43.666;18.444;2022-07-03T01:48:51;22.10;;;11.73;;
65461;SDS011;53236;43.666;18.444;2022-07-03T01:51:19;18.17;;;11.27;;
65461;SDS011;53236;43.666;18.444;2022-07-03T01:53:49;20.53;;;11.43;;
65461;SDS011;53236;43.666;18.444;2022-07-03T01:56:16;18.70;;;11.00;;
65461;SDS011;53236;43.666;18.444;2022-07-03T01:58:44;20.33;;;11.80;;
65461;SDS011;53236;43.666;18.444;2022-07-03T02:03:47;20.10;;;11.07;;
65461;SDS011;53236;43.666;18.444;2022-07-03T02:06:35;22.50;;;10.87;;
65461;SDS011;53236;43.666;18.444;2022-07-03T02:09:09;12.57;;;8.02;;
65461;SDS011;53236;43.666;18.444;2022-07-03T02:11:40;13.70;;;8.07;;
65461;SDS011;53236;43.666;18.444;2022-07-03T02:19:59;12.33;;;8.17;;
65461;SDS011;53236;43.666;18.444;2022-07-03T02:22:20;13.30;;;8.80;;
65461;SDS011;53236;43.666;18.444;2022-07-03T02:24:52;14.17;;;9.47;;
65461;SDS011;53236;43.666;18.444;2022-07-03T02:27:22;13.03;;;10.17;;
65461;SDS011;53236;43.666;18.444;2022-07-03T02:29:54;16.83;;;9.60;;
65461;SDS011;53236;43.666;18.444;2022-07-03T02:32:26;17.90;;;10.47;;
65461;SDS011;53236;43.666;18.444;2022-07-03T02:35:02;13.60;;;10.10;;
65461;SDS011;53236;43.666;18.444;2022-07-03T02:37:32;14.80;;;10.13;;
65461;SDS011;53236;43.666;18.444;2022-07-03T02:43:16;15.45;;;10.70;;
65461;SDS011;53236;43.666;18.444;2022-07-03T02:45:55;14.43;;;10.93;;
65461;SDS011;53236;43.666;18.444;2022-07-03T02:51:44;19.33;;;11.30;;
65461;SDS011;53236;43.666;18.444;2022-07-03T02:54:15;22.90;;;12.83;;
65461;SDS011;53236;43.666;18.444;2022-07-03T02:56:46;19.07;;;12.33;;
65461;SDS011;53236;43.666;18.444;2022-07-03T03:02:13;16.70;;;11.70;;
65461;SDS011;53236;43.666;18.444;2022-07-03T03:04:50;20.40;;;11.93;;
65461;SDS011;53236;43.666;18.444;2022-07-03T03:07:26;19.63;;;12.13;;
65461;SDS011;53236;43.666;18.444;2022-07-03T03:09:59;35.23;;;14.43;;
65461;SDS011;53236;43.666;18.444;2022-07-03T03:12:30;23.77;;;12.13;;
65461;SDS011;53236;43.666;18.444;2022-07-03T03:15:02;16.00;;;11.60;;
65461;SDS011;53236;43.666;18.444;2022-07-03T03:17:36;17.83;;;11.43;;
65461;SDS011;53236;43.666;18.444;2022-07-03T03:20:07;20.10;;;12.70;;
65461;SDS011;53236;43.666;18.444;2022-07-03T03:25:23;14.77;;;10.83;;
65461;SDS011;53236;43.666;18.444;2022-07-03T03:27:49;15.33;;;10.60;;
65461;SDS011;53236;43.666;18.444;2022-07-03T03:30:15;16.63;;;9.77;;
65461;SDS011;53236;43.666;18.444;2022-07-03T03:32:41;13.90;;;10.03;;
65461;SDS011;53236;43.666;18.444;2022-07-03T03:35:07;18.13;;;11.17;;
65461;SDS011;53236;43.666;18.444;2022-07-03T03:37:33;15.97;;;10.87;;
65461;SDS011;53236;43.666;18.444;2022-07-03T03:40:01;15.03;;;10.73;;
65461;SDS011;53236;43.666;18.444;2022-07-03T03:42:30;16.73;;;11.07;;
65461;SDS011;53236;43.666;18.444;2022-07-03T03:44:55;14.13;;;10.00;;
65461;SDS011;53236;43.666;18.444;2022-07-03T03:47:21;19.57;;;9.90;;
65461;SDS011;53236;43.666;18.444;2022-07-03T03:49:47;16.67;;;9.70;;
65461;SDS011;53236;43.666;18.444;2022-07-03T03:52:12;16.23;;;10.03;;
65461;SDS011;53236;43.666;18.444;2022-07-03T03:54:38;17.13;;;10.63;;
65461;SDS011;53236;43.666;18.444;2022-07-03T03:57:17;12.70;;;8.93;;
65461;SDS011;53236;43.666;18.444;2022-07-03T03:59:44;14.53;;;9.17;;
65461;SDS011;53236;43.666;18.444;2022-07-03T04:02:10;12.80;;;9.23;;
65461;SDS011;53236;43.666;18.444;2022-07-03T04:04:35;54.00;;;10.47;;
65461;SDS011;53236;43.666;18.444;2022-07-03T04:07:01;14.67;;;9.73;;
65461;SDS011;53236;43.666;18.444;2022-07-03T04:09:27;15.93;;;10.83;;
65461;SDS011;53236;43.666;18.444;2022-07-03T04:11:52;12.97;;;9.53;;
65461;SDS011;53236;43.666;18.444;2022-07-03T04:14:18;11.90;;;8.40;;
65461;SDS011;53236;43.666;18.444;2022-07-03T04:16:44;10.07;;;7.73;;
65461;SDS011;53236;43.666;18.444;2022-07-03T04:19:09;17.53;;;9.40;;
65461;SDS011;53236;43.666;18.444;2022-07-03T04:21:35;16.30;;;8.77;;
65461;SDS011;53236;43.666;18.444;2022-07-03T04:24:01;13.73;;;7.83;;
65461;SDS011;53236;43.666;18.444;2022-07-03T04:26:26;14.53;;;7.23;;
65461;SDS011;53236;43.666;18.444;2022-07-03T04:28:52;11.70;;;8.00;;
65461;SDS011;53236;43.666;18.444;2022-07-03T04:31:18;9.73;;;6.93;;
65461;SDS011;53236;43.666;18.444;2022-07-03T04:33:43;10.98;;;6.80;;
65461;SDS011;53236;43.666;18.444;2022-07-03T04:36:09;11.07;;;6.85;;
65461;SDS011;53236;43.666;18.444;2022-07-03T04:38:35;11.02;;;6.82;;
65461;SDS011;53236;43.666;18.444;2022-07-03T04:41:00;9.02;;;5.85;;
65461;SDS011;53236;43.666;18.444;2022-07-03T04:43:26;10.48;;;5.68;;
65461;SDS011;53236;43.666;18.444;2022-07-03T04:45:51;8.88;;;5.68;;
65461;SDS011;53236;43.666;18.444;2022-07-03T04:48:17;12.13;;;6.10;;
65461;SDS011;53236;43.666;18.444;2022-07-03T04:50:43;9.13;;;5.30;;
65461;SDS011;53236;43.666;18.444;2022-07-03T04:53:09;6.82;;;5.05;;
65461;SDS011;53236;43.666;18.444;2022-07-03T04:55:34;7.25;;;4.85;;
65461;SDS011;53236;43.666;18.444;2022-07-03T04:58:00;5.72;;;4.32;;
65461;SDS011;53236;43.666;18.444;2022-07-03T05:00:26;6.55;;;4.40;;
65461;SDS011;53236;43.666;18.444;2022-07-03T05:02:51;5.70;;;3.80;;
65461;SDS011;53236;43.666;18.444;2022-07-03T05:05:17;5.53;;;3.70;;
65461;SDS011;53236;43.666;18.444;2022-07-03T05:07:43;6.40;;;3.63;;
65461;SDS011;53236;43.666;18.444;2022-07-03T05:10:09;4.65;;;3.53;;
65461;SDS011;53236;43.666;18.444;2022-07-03T05:12:35;7.00;;;3.53;;
65461;SDS011;53236;43.666;18.444;2022-07-03T05:15:01;4.75;;;3.72;;
65461;SDS011;53236;43.666;18.444;2022-07-03T05:17:26;5.57;;;3.67;;
65461;SDS011;53236;43.666;18.444;2022-07-03T05:19:52;4.63;;;2.88;;
65461;SDS011;53236;43.666;18.444;2022-07-03T05:22:38;6.32;;;3.30;;
65461;SDS011;53236;43.666;18.444;2022-07-03T05:25:04;5.43;;;2.90;;
65461;SDS011;53236;43.666;18.444;2022-07-03T05:27:30;4.10;;;3.00;;
65461;SDS011;53236;43.666;18.444;2022-07-03T05:29:56;4.80;;;2.85;;
65461;SDS011;53236;43.666;18.444;2022-07-03T05:32:22;4.90;;;3.38;;
65461;SDS011;53236;43.666;18.444;2022-07-03T05:34:47;5.88;;;3.85;;
65461;SDS011;53236;43.666;18.444;2022-07-03T05:37:13;6.65;;;4.38;;
65461;SDS011;53236;43.666;18.444;2022-07-03T05:39:38;7.88;;;3.78;;
65461;SDS011;53236;43.666;18.444;2022-07-03T05:42:04;6.07;;;3.60;;
65461;SDS011;53236;43.666;18.444;2022-07-03T05:44:30;6.00;;;3.40;;
65461;SDS011;53236;43.666;18.444;2022-07-03T05:46:56;8.35;;;4.85;;
65461;SDS011;53236;43.666;18.444;2022-07-03T05:49:22;7.60;;;4.78;;
65461;SDS011;53236;43.666;18.444;2022-07-03T05:51:48;7.22;;;4.25;;
65461;SDS011;53236;43.666;18.444;2022-07-03T05:54:13;7.53;;;3.65;;
65461;SDS011;53236;43.666;18.444;2022-07-03T05:56:39;6.35;;;3.70;;
65461;SDS011;53236;43.666;18.444;2022-07-03T05:59:05;5.70;;;3.47;;
65461;SDS011;53236;43.666;18.444;2022-07-03T06:01:31;7.22;;;3.50;;
65461;SDS011;53236;43.666;18.444;2022-07-03T06:03:56;6.57;;;3.72;;
65461;SDS011;53236;43.666;18.444;2022-07-03T06:06:22;5.53;;;3.30;;
65461;SDS011;53236;43.666;18.444;2022-07-03T06:08:48;6.35;;;3.80;;
65461;SDS011;53236;43.666;18.444;2022-07-03T06:11:13;6.43;;;4.13;;
65461;SDS011;53236;43.666;18.444;2022-07-03T06:13:39;6.78;;;3.35;;
65461;SDS011;53236;43.666;18.444;2022-07-03T06:16:05;7.82;;;4.32;;
65461;SDS011;53236;43.666;18.444;2022-07-03T06:18:31;4.60;;;3.13;;
65461;SDS011;53236;43.666;18.444;2022-07-03T06:20:56;8.45;;;3.65;;
65461;SDS011;53236;43.666;18.444;2022-07-03T06:23:22;7.72;;;3.30;;
65461;SDS011;53236;43.666;18.444;2022-07-03T06:25:47;6.43;;;3.42;;
65461;SDS011;53236;43.666;18.444;2022-07-03T06:28:13;10.25;;;3.58;;
65461;SDS011;53236;43.666;18.444;2022-07-03T06:30:39;6.45;;;3.30;;
65461;SDS011;53236;43.666;18.444;2022-07-03T06:33:05;4.90;;;3.00;;
65461;SDS011;53236;43.666;18.444;2022-07-03T06:35:31;5.38;;;2.90;;
65461;SDS011;53236;43.666;18.444;2022-07-03T06:38:03;6.88;;;3.30;;
65461;SDS011;53236;43.666;18.444;2022-07-03T06:40:30;5.40;;;3.13;;
65461;SDS011;53236;43.666;18.444;2022-07-03T06:42:56;7.55;;;3.28;;
65461;SDS011;53236;43.666;18.444;2022-07-03T06:45:21;7.75;;;3.30;;
65461;SDS011;53236;43.666;18.444;2022-07-03T06:47:47;7.10;;;3.40;;
65461;SDS011;53236;43.666;18.444;2022-07-03T06:50:13;9.13;;;3.63;;
65461;SDS011;53236;43.666;18.444;2022-07-03T06:52:38;6.93;;;3.63;;
65461;SDS011;53236;43.666;18.444;2022-07-03T06:55:04;7.93;;;3.95;;
65461;SDS011;53236;43.666;18.444;2022-07-03T06:57:31;7.05;;;3.75;;
65461;SDS011;53236;43.666;18.444;2022-07-03T06:59:56;8.55;;;3.55;;
65461;SDS011;53236;43.666;18.444;2022-07-03T07:02:22;8.93;;;3.60;;
65461;SDS011;53236;43.666;18.444;2022-07-03T07:04:48;6.90;;;3.45;;
65461;SDS011;53236;43.666;18.444;2022-07-03T07:07:13;7.70;;;3.75;;
65461;SDS011;53236;43.666;18.444;2022-07-03T07:09:39;10.20;;;4.28;;
65461;SDS011;53236;43.666;18.444;2022-07-03T07:12:05;7.82;;;3.70;;
65461;SDS011;53236;43.666;18.444;2022-07-03T07:14:31;7.75;;;4.22;;
65461;SDS011;53236;43.666;18.444;2022-07-03T07:16:57;7.18;;;4.05;;
65461;SDS011;53236;43.666;18.444;2022-07-03T07:19:22;6.75;;;3.95;;
65461;SDS011;53236;43.666;18.444;2022-07-03T07:21:48;8.10;;;3.60;;
65461;SDS011;53236;43.666;18.444;2022-07-03T07:24:13;6.93;;;4.43;;
65461;SDS011;53236;43.666;18.444;2022-07-03T07:26:39;11.50;;;4.53;;
65461;SDS011;53236;43.666;18.444;2022-07-03T07:29:05;10.80;;;4.07;;
65461;SDS011;53236;43.666;18.444;2022-07-03T07:31:31;8.30;;;3.90;;
65461;SDS011;53236;43.666;18.444;2022-07-03T07:33:57;8.43;;;3.45;;
65461;SDS011;53236;43.666;18.444;2022-07-03T07:36:22;7.22;;;3.50;;
65461;SDS011;53236;43.666;18.444;2022-07-03T07:38:48;9.60;;;3.38;;
65461;SDS011;53236;43.666;18.444;2022-07-03T07:41:14;8.13;;;3.13;;
65461;SDS011;53236;43.666;18.444;2022-07-03T07:43:40;7.30;;;3.75;;
65461;SDS011;53236;43.666;18.444;2022-07-03T07:46:05;8.30;;;3.70;;
65461;SDS011;53236;43.666;18.444;2022-07-03T07:48:32;7.57;;;3.63;;
65461;SDS011;53236;43.666;18.444;2022-07-03T07:50:59;6.25;;;3.65;;
65461;SDS011;53236;43.666;18.444;2022-07-03T07:53:26;5.93;;;3.20;;
65461;SDS011;53236;43.666;18.444;2022-07-03T07:55:51;9.18;;;3.78;;
65461;SDS011;53236;43.666;18.444;2022-07-03T07:58:17;6.28;;;3.20;;
65461;SDS011;53236;43.666;18.444;2022-07-03T08:00:43;6.78;;;3.05;;
65461;SDS011;53236;43.666;18.444;2022-07-03T08:03:27;9.38;;;3.78;;
65461;SDS011;53236;43.666;18.444;2022-07-03T08:06:12;4.35;;;2.95;;
65461;SDS011;53236;43.666;18.444;2022-07-03T08:08:38;5.38;;;3.42;;
65461;SDS011;53236;43.666;18.444;2022-07-03T08:11:06;7.78;;;3.20;;
65461;SDS011;53236;43.666;18.444;2022-07-03T08:13:34;6.05;;;3.22;;
65461;SDS011;53236;43.666;18.444;2022-07-03T08:16:05;7.20;;;3.50;;
65461;SDS011;53236;43.666;18.444;2022-07-03T08:18:31;7.78;;;3.38;;
65461;SDS011;53236;43.666;18.444;2022-07-03T08:21:01;7.10;;;3.47;;
65461;SDS011;53236;43.666;18.444;2022-07-03T08:23:27;6.00;;;2.97;;
65461;SDS011;53236;43.666;18.444;2022-07-03T08:25:56;7.15;;;3.13;;
65461;SDS011;53236;43.666;18.444;2022-07-03T08:28:22;6.95;;;3.33;;
65461;SDS011;53236;43.666;18.444;2022-07-03T08:30:53;6.80;;;3.47;;
65461;SDS011;53236;43.666;18.444;2022-07-03T08:33:34;7.25;;;3.33;;
65461;SDS011;53236;43.666;18.444;2022-07-03T08:36:00;4.65;;;2.75;;
65461;SDS011;53236;43.666;18.444;2022-07-03T08:38:28;6.78;;;3.17;;
65461;SDS011;53236;43.666;18.444;2022-07-03T08:41:04;4.18;;;3.10;;
65461;SDS011;53236;43.666;18.444;2022-07-03T08:43:33;6.55;;;2.92;;
65461;SDS011;53236;43.666;18.444;2022-07-03T08:46:34;9.77;;;3.85;;
65461;SDS011;53236;43.666;18.444;2022-07-03T08:49:01;5.97;;;3.22;;
65461;SDS011;53236;43.666;18.444;2022-07-03T08:51:29;6.70;;;3.30;;
65461;SDS011;53236;43.666;18.444;2022-07-03T08:53:55;6.93;;;3.50;;
65461;SDS011;53236;43.666;18.444;2022-07-03T08:56:26;6.88;;;3.15;;
65461;SDS011;53236;43.666;18.444;2022-07-03T08:58:53;6.38;;;3.08;;
65461;SDS011;53236;43.666;18.444;2022-07-03T09:01:22;8.57;;;3.63;;
65461;SDS011;53236;43.666;18.444;2022-07-03T09:03:48;5.88;;;3.00;;
65461;SDS011;53236;43.666;18.444;2022-07-03T09:06:16;9.75;;;3.03;;
65461;SDS011;53236;43.666;18.444;2022-07-03T09:08:42;9.10;;;3.33;;
65461;SDS011;53236;43.666;18.444;2022-07-03T09:11:10;7.75;;;3.80;;
65461;SDS011;53236;43.666;18.444;2022-07-03T09:13:36;6.47;;;3.88;;
65461;SDS011;53236;43.666;18.444;2022-07-03T09:16:02;6.60;;;3.58;;
65461;SDS011;53236;43.666;18.444;2022-07-03T09:18:38;7.95;;;4.25;;
65461;SDS011;53236;43.666;18.444;2022-07-03T09:21:15;10.43;;;3.92;;
65461;SDS011;53236;43.666;18.444;2022-07-03T09:23:42;8.93;;;4.18;;
65461;SDS011;53236;43.666;18.444;2022-07-03T09:26:13;10.10;;;4.68;;
65461;SDS011;53236;43.666;18.444;2022-07-03T09:31:20;11.32;;;5.85;;
65461;SDS011;53236;43.666;18.444;2022-07-03T09:36:44;9.50;;;5.03;;
65461;SDS011;53236;43.666;18.444;2022-07-03T09:39:21;11.85;;;7.32;;
65461;SDS011;53236;43.666;18.444;2022-07-03T09:42:03;10.18;;;6.05;;
65461;SDS011;53236;43.666;18.444;2022-07-03T09:49:47;15.60;;;8.80;;
65461;SDS011;53236;43.666;18.444;2022-07-03T09:52:39;18.50;;;10.45;;
65461;SDS011;53236;43.666;18.444;2022-07-03T09:57:35;17.25;;;7.20;;
65461;SDS011;53236;43.666;18.444;2022-07-03T10:00:17;16.20;;;7.78;;
65461;SDS011;53236;43.666;18.444;2022-07-03T10:03:00;10.88;;;5.80;;
65461;SDS011;53236;43.666;18.444;2022-07-03T10:08:04;14.52;;;7.60;;
65461;SDS011;53236;43.666;18.444;2022-07-03T10:10:33;13.35;;;6.35;;
65461;SDS011;53236;43.666;18.444;2022-07-03T10:13:00;16.08;;;6.60;;
65461;SDS011;53236;43.666;18.444;2022-07-03T10:15:28;12.52;;;6.00;;
65461;SDS011;53236;43.666;18.444;2022-07-03T10:17:55;33.15;;;14.80;;
65461;SDS011;53236;43.666;18.444;2022-07-03T10:22:51;11.93;;;6.18;;
65461;SDS011;53236;43.666;18.444;2022-07-03T10:25:25;14.52;;;6.78;;
65461;SDS011;53236;43.666;18.444;2022-07-03T10:27:50;21.13;;;9.23;;
65461;SDS011;53236;43.666;18.444;2022-07-03T10:30:18;15.18;;;6.88;;
65461;SDS011;53236;43.666;18.444;2022-07-03T10:32:54;16.50;;;5.03;;
65461;SDS011;53236;43.666;18.444;2022-07-03T10:35:25;10.38;;;5.38;;
65461;SDS011;53236;43.666;18.444;2022-07-03T10:43:48;10.45;;;3.97;;
65461;SDS011;53236;43.666;18.444;2022-07-03T10:46:35;11.80;;;4.75;;
65461;SDS011;53236;43.666;18.444;2022-07-03T10:49:04;11.57;;;4.68;;
65461;SDS011;53236;43.666;18.444;2022-07-03T10:54:25;13.32;;;3.90;;
65461;SDS011;53236;43.666;18.444;2022-07-03T11:07:23;10.82;;;4.40;;
65461;SDS011;53236;43.666;18.444;2022-07-03T11:25:51;14.20;;;4.40;;
65461;SDS011;53236;43.666;18.444;2022-07-03T11:36:10;8.95;;;4.68;;
65461;SDS011;53236;43.666;18.444;2022-07-03T11:41:17;11.63;;;5.30;;
65461;SDS011;53236;43.666;18.444;2022-07-03T11:43:50;11.80;;;5.15;;
65461;SDS011;53236;43.666;18.444;2022-07-03T11:46:16;11.25;;;5.05;;
65461;SDS011;53236;43.666;18.444;2022-07-03T11:48:45;10.40;;;4.68;;
65461;SDS011;53236;43.666;18.444;2022-07-03T11:51:11;10.38;;;4.80;;
65461;SDS011;53236;43.666;18.444;2022-07-03T11:53:37;9.15;;;4.55;;
65461;SDS011;53236;43.666;18.444;2022-07-03T11:56:04;9.43;;;4.90;;
65461;SDS011;53236;43.666;18.444;2022-07-03T11:58:53;8.30;;;4.50;;
65461;SDS011;53236;43.666;18.444;2022-07-03T12:04:08;8.75;;;4.45;;
65461;SDS011;53236;43.666;18.444;2022-07-03T12:06:49;11.90;;;5.13;;
65461;SDS011;53236;43.666;18.444;2022-07-03T12:09:21;11.00;;;4.32;;
65461;SDS011;53236;43.666;18.444;2022-07-03T12:17:10;12.93;;;4.03;;
65461;SDS011;53236;43.666;18.444;2022-07-03T12:19:36;12.63;;;4.65;;
65461;SDS011;53236;43.666;18.444;2022-07-03T12:22:03;8.40;;;4.50;;
65461;SDS011;53236;43.666;18.444;2022-07-03T12:24:29;8.20;;;4.00;;
65461;SDS011;53236;43.666;18.444;2022-07-03T12:26:57;11.05;;;5.47;;
65461;SDS011;53236;43.666;18.444;2022-07-03T12:29:35;12.35;;;4.88;;
65461;SDS011;53236;43.666;18.444;2022-07-03T12:32:02;10.35;;;4.30;;
65461;SDS011;53236;43.666;18.444;2022-07-03T12:34:35;14.05;;;5.25;;
65461;SDS011;53236;43.666;18.444;2022-07-03T12:37:02;9.43;;;4.53;;
65461;SDS011;53236;43.666;18.444;2022-07-03T12:39:40;12.82;;;4.47;;
65461;SDS011;53236;43.666;18.444;2022-07-03T12:42:16;9.32;;;4.70;;
65461;SDS011;53236;43.666;18.444;2022-07-03T12:44:54;10.40;;;4.75;;
65461;SDS011;53236;43.666;18.444;2022-07-03T12:47:30;12.18;;;4.78;;
65461;SDS011;53236;43.666;18.444;2022-07-03T12:50:03;8.68;;;4.40;;
65461;SDS011;53236;43.666;18.444;2022-07-03T12:52:31;9.18;;;4.38;;
65461;SDS011;53236;43.666;18.444;2022-07-03T12:55:00;10.40;;;4.68;;
65461;SDS011;53236;43.666;18.444;2022-07-03T12:57:27;11.02;;;4.60;;
65461;SDS011;53236;43.666;18.444;2022-07-03T13:00:15;10.90;;;4.22;;
65461;SDS011;53236;43.666;18.444;2022-07-03T13:02:43;9.45;;;4.97;;
65461;SDS011;53236;43.666;18.444;2022-07-03T13:05:17;9.63;;;4.57;;
65461;SDS011;53236;43.666;18.444;2022-07-03T13:07:49;10.63;;;4.93;;
65461;SDS011;53236;43.666;18.444;2022-07-03T13:10:16;9.55;;;4.82;;
65461;SDS011;53236;43.666;18.444;2022-07-03T13:12:46;10.63;;;4.57;;
65461;SDS011;53236;43.666;18.444;2022-07-03T13:15:13;12.15;;;4.68;;
65461;SDS011;53236;43.666;18.444;2022-07-03T13:20:18;12.80;;;4.40;;
65461;SDS011;53236;43.666;18.444;2022-07-03T13:22:55;7.38;;;4.32;;
65461;SDS011;53236;43.666;18.444;2022-07-03T13:25:23;13.68;;;4.95;;
65461;SDS011;53236;43.666;18.444;2022-07-03T13:27:49;10.88;;;4.72;;
65461;SDS011;53236;43.666;18.444;2022-07-03T13:30:16;11.68;;;4.57;;
65461;SDS011;53236;43.666;18.444;2022-07-03T13:32:46;11.05;;;4.72;;
65461;SDS011;53236;43.666;18.444;2022-07-03T13:35:12;9.05;;;4.72;;
65461;SDS011;53236;43.666;18.444;2022-07-03T13:37:38;8.18;;;4.28;;
65461;SDS011;53236;43.666;18.444;2022-07-03T13:40:04;8.35;;;4.70;;
65461;SDS011;53236;43.666;18.444;2022-07-03T13:42:31;8.00;;;4.32;;
65461;SDS011;53236;43.666;18.444;2022-07-03T13:44:57;9.85;;;4.97;;
65461;SDS011;53236;43.666;18.444;2022-07-03T13:47:22;7.75;;;3.97;;
65461;SDS011;53236;43.666;18.444;2022-07-03T13:49:48;11.68;;;5.32;;
65461;SDS011;53236;43.666;18.444;2022-07-03T13:52:14;10.68;;;4.53;;
65461;SDS011;53236;43.666;18.444;2022-07-03T13:54:40;11.90;;;4.60;;
65461;SDS011;53236;43.666;18.444;2022-07-03T13:57:05;16.02;;;4.82;;
65461;SDS011;53236;43.666;18.444;2022-07-03T13:59:31;7.60;;;4.70;;
65461;SDS011;53236;43.666;18.444;2022-07-03T14:01:57;10.05;;;4.20;;
65461;SDS011;53236;43.666;18.444;2022-07-03T14:04:23;11.10;;;4.90;;
65461;SDS011;53236;43.666;18.444;2022-07-03T14:06:49;7.68;;;4.30;;
65461;SDS011;53236;43.666;18.444;2022-07-03T14:09:15;11.57;;;4.93;;
65461;SDS011;53236;43.666;18.444;2022-07-03T14:11:41;12.30;;;5.07;;
65461;SDS011;53236;43.666;18.444;2022-07-03T14:14:07;7.18;;;4.60;;
65461;SDS011;53236;43.666;18.444;2022-07-03T14:16:33;10.23;;;4.57;;
65461;SDS011;53236;43.666;18.444;2022-07-03T14:18:58;13.80;;;4.90;;
65461;SDS011;53236;43.666;18.444;2022-07-03T14:21:24;12.10;;;4.85;;
65461;SDS011;53236;43.666;18.444;2022-07-03T14:23:50;13.18;;;4.85;;
65461;SDS011;53236;43.666;18.444;2022-07-03T14:26:15;8.57;;;4.85;;
65461;SDS011;53236;43.666;18.444;2022-07-03T14:29:01;13.40;;;5.07;;
65461;SDS011;53236;43.666;18.444;2022-07-03T14:31:46;10.65;;;5.43;;
65461;SDS011;53236;43.666;18.444;2022-07-03T14:34:30;12.82;;;5.18;;
65461;SDS011;53236;43.666;18.444;2022-07-03T14:36:55;13.02;;;5.18;;
65461;SDS011;53236;43.666;18.444;2022-07-03T14:39:21;11.38;;;4.78;;
65461;SDS011;53236;43.666;18.444;2022-07-03T14:41:47;11.65;;;4.38;;
65461;SDS011;53236;43.666;18.444;2022-07-03T14:44:14;10.88;;;4.65;;
65461;SDS011;53236;43.666;18.444;2022-07-03T14:46:39;10.43;;;4.53;;
65461;SDS011;53236;43.666;18.444;2022-07-03T14:49:06;12.13;;;5.35;;
65461;SDS011;53236;43.666;18.444;2022-07-03T14:51:32;12.45;;;5.75;;
65461;SDS011;53236;43.666;18.444;2022-07-03T14:53:57;12.20;;;5.05;;
65461;SDS011;53236;43.666;18.444;2022-07-03T14:56:23;7.97;;;5.00;;
65461;SDS011;53236;43.666;18.444;2022-07-03T14:58:49;12.38;;;5.45;;
65461;SDS011;53236;43.666;18.444;2022-07-03T15:01:15;15.57;;;5.28;;
65461;SDS011;53236;43.666;18.444;2022-07-03T15:04:03;11.07;;;5.00;;
65461;SDS011;53236;43.666;18.444;2022-07-03T15:06:34;12.25;;;5.18;;
65461;SDS011;53236;43.666;18.444;2022-07-03T15:09:01;9.45;;;5.10;;
65461;SDS011;53236;43.666;18.444;2022-07-03T15:11:33;11.88;;;4.75;;
65461;SDS011;53236;43.666;18.444;2022-07-03T15:14:23;10.60;;;4.93;;
65461;SDS011;53236;43.666;18.444;2022-07-03T15:16:51;12.80;;;5.38;;
65461;SDS011;53236;43.666;18.444;2022-07-03T15:19:18;10.23;;;4.72;;
65461;SDS011;53236;43.666;18.444;2022-07-03T15:21:47;11.85;;;5.53;;
65461;SDS011;53236;43.666;18.444;2022-07-03T15:24:14;13.00;;;5.13;;
65461;SDS011;53236;43.666;18.444;2022-07-03T15:26:41;13.15;;;6.00;;
65461;SDS011;53236;43.666;18.444;2022-07-03T15:29:12;13.57;;;6.05;;
65461;SDS011;53236;43.666;18.444;2022-07-03T15:31:38;10.93;;;5.78;;
65461;SDS011;53236;43.666;18.444;2022-07-03T15:34:05;14.63;;;6.00;;
65461;SDS011;53236;43.666;18.444;2022-07-03T15:39:22;15.95;;;5.75;;
65461;SDS011;53236;43.666;18.444;2022-07-03T15:45:07;14.55;;;5.90;;
65461;SDS011;53236;43.666;18.444;2022-07-03T15:50:20;13.25;;;5.50;;
65461;SDS011;53236;43.666;18.444;2022-07-03T15:52:53;11.30;;;5.60;;
65461;SDS011;53236;43.666;18.444;2022-07-03T15:55:19;13.35;;;6.15;;
65461;SDS011;53236;43.666;18.444;2022-07-03T15:58:01;15.07;;;6.20;;
65461;SDS011;53236;43.666;18.444;2022-07-03T16:00:29;10.40;;;6.35;;
65461;SDS011;53236;43.666;18.444;2022-07-03T16:03:10;15.88;;;7.10;;
65461;SDS011;53236;43.666;18.444;2022-07-03T16:05:37;12.07;;;6.82;;
65461;SDS011;53236;43.666;18.444;2022-07-03T16:08:05;16.48;;;6.07;;
65461;SDS011;53236;43.666;18.444;2022-07-03T16:10:32;14.20;;;6.57;;
65461;SDS011;53236;43.666;18.444;2022-07-03T16:12:59;9.43;;;6.65;;
65461;SDS011;53236;43.666;18.444;2022-07-03T16:15:27;10.70;;;6.55;;
65461;SDS011;53236;43.666;18.444;2022-07-03T16:17:55;16.55;;;7.22;;
65461;SDS011;53236;43.666;18.444;2022-07-03T16:20:23;11.75;;;6.43;;
65461;SDS011;53236;43.666;18.444;2022-07-03T16:22:52;13.45;;;7.22;;
65461;SDS011;53236;43.666;18.444;2022-07-03T16:25:21;15.15;;;7.47;;
65461;SDS011;53236;43.666;18.444;2022-07-03T16:27:49;15.45;;;7.65;;
65461;SDS011;53236;43.666;18.444;2022-07-03T16:30:15;16.13;;;7.07;;